Terminal Aerodrome Forecast
Issued by NWS Grand Forks, ND

Home | Current Version | Previous Version | Graphics & Text | Print | Product List | Glossary On
Versions: 1 2 3 4 5 6 7 8 9 10 11 12 13 14 15 16 17
000
FTUS43 KFGF 191400 AAB
TAFGFK
TAF AMD
KGFK 191416Z 1914/2012 28003KT P6SM SKC
      TEMPO 1914/1915 BKN005
     FM191600 VRB05KT P6SM SCT040
     FM200100 VRB05KT P6SM SKC=

USA.gov is the U.S. government's official web portal to all federal, state and local government web resources and services.